Time;durP1;ratioP1;P1;durP2;ratioP2;P2;SDS_P1;SDS_P2;PMS_P1;PMS_P2;Temp;Humidity;BMP_temperature;BMP_pressure;BME280_temperature;BME280_humidity;BME280_pressure;Samples;Min_cycle;Max_cycle;Signal;HPM_P1;HPM_P2
2021/03/26 00:01:49;;;;;;;22.15;10.43;;;;;;;5.37;79.06;101405.31;4905779;29;20028;-79
2021/03/26 00:04:15;;;;;;;30.52;10.10;;;;;;;5.17;79.33;101378.75;4934597;29;20020;-78
2021/03/26 00:06:47;;;;;;;24.38;10.68;;;;;;;5.35;79.32;101405.44;4925892;29;20043;-78
2021/03/26 00:09:20;;;;;;;25.65;10.05;;;;;;;5.24;79.23;101399.50;4925303;29;20045;-79
2021/03/26 00:11:46;;;;;;;20.98;10.63;;;;;;;5.33;79.00;101415.47;4938540;29;20098;-78
2021/03/26 00:14:13;;;;;;;27.83;10.88;;;;;;;5.24;79.19;101397.66;4941694;29;20032;-78
2021/03/26 00:16:38;;;;;;;31.15;10.57;;;;;;;5.36;79.43;101415.16;4929492;29;20028;-78
2021/03/26 00:19:04;;;;;;;23.50;11.25;;;;;;;5.36;78.93;101419.63;4906746;29;20098;-79
2021/03/26 00:21:30;;;;;;;27.13;11.13;;;;;;;5.31;79.83;101406.75;4905604;29;20115;-79
2021/03/26 00:23:56;;;;;;;19.33;10.27;;;;;;;5.29;79.62;101402.53;4922502;29;20035;-79
2021/03/26 00:26:22;;;;;;;21.58;10.70;;;;;;;5.34;79.99;101408.28;4922829;29;20036;-79
2021/03/26 00:28:48;;;;;;;25.85;11.07;;;;;;;5.28;79.83;101400.88;4927341;29;20020;-78
2021/03/26 00:31:13;;;;;;;24.00;11.05;;;;;;;5.28;79.22;101399.03;4903090;29;20060;-78
2021/03/26 00:33:39;;;;;;;23.58;11.82;;;;;;;5.30;79.66;101407.75;4923818;29;20038;-79
2021/03/26 00:36:05;;;;;;;24.17;11.77;;;;;;;5.22;79.39;101385.47;4939198;29;20030;-78
2021/03/26 00:38:30;;;;;;;34.28;13.45;;;;;;;5.18;79.29;101384.91;4902442;29;20031;-78
2021/03/26 00:40:56;;;;;;;27.70;13.13;;;;;;;5.25;80.37;101409.19;4932198;29;20123;-79
2021/03/26 00:43:22;;;;;;;32.47;13.88;;;;;;;5.23;80.21;101409.34;4913406;29;20028;-79
2021/03/26 00:45:49;;;;;;;25.45;13.85;;;;;;;5.23;79.96;101408.47;4924337;29;20350;-79
2021/03/26 00:48:17;;;;;;;36.40;15.80;;;;;;;4.92;80.05;101364.28;4908869;29;20474;-79
2021/03/26 00:50:46;;;;;;;31.75;14.95;;;;;;;5.17;80.25;101405.44;4895608;29;20078;-78
2021/03/26 00:53:17;;;;;;;31.13;15.52;;;;;;;5.06;80.92;101386.94;4907492;29;20139;-79
2021/03/26 00:55:43;;;;;;;30.05;16.15;;;;;;;5.10;80.96;101403.47;4889321;29;20636;-79
2021/03/26 00:58:09;;;;;;;36.03;16.25;;;;;;;5.13;80.90;101390.72;4902698;29;20036;-79
2021/03/26 01:00:37;;;;;;;33.63;17.05;;;;;;;5.08;80.62;101392.16;4918862;29;20072;-78
2021/03/26 01:03:03;;;;;;;34.50;18.35;;;;;;;4.81;81.59;101350.31;4918820;29;20020;-78
2021/03/26 01:05:32;;;;;;;38.40;18.50;;;;;;;5.00;81.60;101378.69;4924281;29;20043;-79
2021/03/26 01:07:58;;;;;;;37.78;19.33;;;;;;;5.03;81.32;101381.91;4911127;29;20127;-79
2021/03/26 01:10:27;;;;;;;35.97;18.65;;;;;;;4.92;81.81;101372.28;4887826;29;20354;-79
2021/03/26 01:12:54;;;;;;;39.47;19.52;;;;;;;4.95;81.83;101374.66;4920137;29;20059;-79
2021/03/26 01:15:23;;;;;;;38.80;19.60;;;;;;;4.96;81.43;101380.81;4918866;29;20017;-79
2021/03/26 01:17:50;;;;;;;41.30;20.13;;;;;;;4.79;81.76;101345.13;4919767;29;20194;-79
2021/03/26 01:20:20;;;;;;;39.65;20.15;;;;;;;4.88;82.04;101370.06;4886782;29;20048;-79
2021/03/26 01:22:45;;;;;;;41.85;20.98;;;;;;;4.92;81.98;101364.28;4919272;29;20032;-79
2021/03/26 01:25:35;;;;;;;45.17;22.20;;;;;;;4.82;82.26;101357.31;4870682;29;20092;-79
2021/03/26 01:28:01;;;;;;;41.95;22.02;;;;;;;4.88;81.67;101376.25;4901036;29;20527;-78
2021/03/26 01:30:30;;;;;;;46.92;23.23;;;;;;;4.91;82.02;101380.44;4917680;29;20048;-79
2021/03/26 01:32:56;;;;;;;52.40;24.30;;;;;;;4.81;82.19;101351.16;4898450;29;20055;-78
2021/03/26 01:35:22;;;;;;;52.95;24.98;;;;;;;4.90;82.25;101376.94;4937582;29;20114;-78
2021/03/26 01:37:48;;;;;;;52.38;25.17;;;;;;;4.93;82.63;101371.31;4926232;29;20032;-79
2021/03/26 01:40:18;;;;;;;47.17;25.13;;;;;;;4.92;82.73;101374.13;4916062;29;20044;-79
2021/03/26 01:42:44;;;;;;;47.85;26.02;;;;;;;4.92;82.00;101380.28;4918947;29;20080;-79
2021/03/26 01:45:13;;;;;;;52.38;26.80;;;;;;;4.89;81.91;101380.56;4918278;29;20043;-78
2021/03/26 01:47:38;;;;;;;54.75;26.60;;;;;;;4.86;82.14;101375.53;4918104;29;20029;-78
2021/03/26 01:50:08;;;;;;;49.80;27.40;;;;;;;4.80;82.55;101380.63;4886831;29;20032;-78
2021/03/26 01:52:33;;;;;;;53.15;27.02;;;;;;;4.76;82.33;101381.91;4918837;29;20451;-78
2021/03/26 01:54:59;;;;;;;57.00;28.25;;;;;;;4.69;82.32;101369.16;4917460;29;20158;-79
2021/03/26 01:57:24;;;;;;;56.63;26.67;;;;;;;4.75;83.06;101381.06;4919251;29;20047;-79
2021/03/26 01:59:50;;;;;;;55.05;28.25;;;;;;;4.71;82.50;101374.34;4918604;29;20059;-79
2021/03/26 02:02:20;;;;;;;66.13;29.02;;;;;;;4.75;83.01;101381.06;4931660;29;20031;-79
2021/03/26 02:04:47;;;;;;;53.80;29.50;;;;;;;4.75;82.54;101372.25;4918893;29;20441;-79
2021/03/26 02:07:16;;;;;;;53.05;27.35;;;;;;;4.77;83.13;101372.91;4917419;29;20032;-78
2021/03/26 02:09:42;;;;;;;53.30;28.55;;;;;;;4.69;83.42;101355.00;4928489;29;20058;-79
2021/03/26 02:12:08;;;;;;;55.40;29.50;;;;;;;4.77;83.32;101362.25;4903483;29;20051;-78
2021/03/26 02:14:45;;;;;;;55.97;28.08;;;;;;;4.76;82.84;101366.75;4936521;29;20134;-78
2021/03/26 02:17:16;;;;;;;59.25;29.98;;;;;;;4.65;83.15;101354.44;4919905;29;20028;-79
2021/03/26 02:19:51;;;;;;;54.50;28.80;;;;;;;4.70;83.65;101368.19;4918232;29;20036;-78
2021/03/26 02:22:17;;;;;;;68.65;30.10;;;;;;;4.73;83.19;101369.69;4901627;29;20028;-78
2021/03/26 02:24:45;;;;;;;56.30;30.67;;;;;;;4.70;83.66;101367.31;4900901;29;20695;-79
2021/03/26 02:27:24;;;;;;;62.67;30.60;;;;;;;4.70;82.86;101370.84;4920231;29;20055;-78
2021/03/26 02:29:50;;;;;;;65.47;32.42;;;;;;;4.74;83.60;101367.91;4936515;29;20115;-78
2021/03/26 02:32:28;;;;;;;56.33;30.23;;;;;;;4.73;83.38;101361.72;4916560;29;20039;-78
2021/03/26 02:35:07;;;;;;;65.43;30.60;;;;;;;4.72;83.48;101357.38;4917206;29;20332;-78
2021/03/26 02:37:34;;;;;;;65.32;31.58;;;;;;;4.77;83.55;101359.59;4917340;29;20028;-78
2021/03/26 02:39:59;;;;;;;59.25;31.88;;;;;;;4.74;83.56;101357.25;4898300;29;20144;-78
2021/03/26 02:42:31;;;;;;;65.57;33.60;;;;;;;4.78;83.14;101369.28;4920407;29;20118;-78
2021/03/26 02:45:18;;;;;;;73.88;34.05;;;;;;;4.80;83.98;101364.63;4919674;29;20034;-78
2021/03/26 02:47:56;;;;;;;69.65;33.58;;;;;;;4.80;83.72;101368.16;4937505;29;20024;-79
2021/03/26 02:50:44;;;;;;;75.13;35.50;;;;;;;4.82;83.68;101365.31;4933265;29;20518;-78
2021/03/26 02:53:30;;;;;;;69.40;35.35;;;;;;;4.88;83.31;101359.41;4920100;29;20410;-78
2021/03/26 02:56:27;;;;;;;69.15;36.25;;;;;;;4.84;83.26;101366.88;4907769;29;20036;-78
2021/03/26 02:59:45;;;;;;;74.15;36.65;;;;;;;4.85;83.23;101357.88;4893339;29;20050;-78
2021/03/26 03:02:14;;;;;;;74.55;37.50;;;;;;;4.83;83.88;101341.16;4856112;29;20036;-78
2021/03/26 03:05:01;;;;;;;76.18;39.08;;;;;;;4.87;84.21;101349.72;4915384;29;20028;-79
2021/03/26 03:07:34;;;;;;;73.13;39.55;;;;;;;4.73;83.80;101327.06;4882926;29;20169;-78
2021/03/26 03:10:21;;;;;;;81.82;42.30;;;;;;;4.89;84.00;101345.06;4882872;29;20079;-79
2021/03/26 03:12:50;;;;;;;85.63;43.53;;;;;;;4.91;84.10;101348.44;4900097;29;20359;-78
2021/03/26 03:15:22;;;;;;;83.20;42.42;;;;;;;4.96;84.26;101348.81;4881587;29;20440;-79
2021/03/26 03:18:00;;;;;;;79.22;44.08;;;;;;;4.98;83.79;101351.34;4932895;29;20039;-79
2021/03/26 03:20:41;;;;;;;83.10;43.65;;;;;;;4.98;83.67;101346.84;4923504;29;20051;-78
2021/03/26 03:23:15;;;;;;;80.68;43.65;;;;;;;5.02;84.54;101350.91;4944472;29;20032;-79
2021/03/26 03:25:40;;;;;;;91.63;45.97;;;;;;;5.02;84.12;101336.72;4939718;29;20439;-79
2021/03/26 03:28:27;;;;;;;88.97;46.45;;;;;;;5.05;84.17;101344.44;4920629;29;20038;-79
2021/03/26 03:31:17;;;;;;;93.13;46.10;;;;;;;5.04;84.29;101340.94;4919468;29;20031;-79
2021/03/26 03:33:48;;;;;;;90.32;46.65;;;;;;;5.07;84.66;101345.97;4937115;29;20115;-79
2021/03/26 03:36:24;;;;;;;98.68;48.97;;;;;;;5.07;84.58;101343.28;4918343;29;20047;-78
2021/03/26 03:39:16;;;;;;;103.60;50.45;;;;;;;4.84;84.45;101308.19;4917517;29;20020;-78
2021/03/26 03:41:55;;;;;;;99.00;51.33;;;;;;;5.04;84.84;101343.59;4934233;29;20083;-78
2021/03/26 03:44:42;;;;;;;100.32;50.17;;;;;;;4.97;84.62;101337.19;4919844;29;20028;-78
2021/03/26 03:47:38;;;;;;;98.70;49.63;;;;;;;4.92;84.72;101326.94;4904866;29;20024;-79
2021/03/26 03:50:21;;;;;;;100.47;49.72;;;;;;;5.04;84.18;101338.25;4896595;29;20035;-78
2021/03/26 03:53:02;;;;;;;102.50;51.00;;;;;;;5.05;84.25;101337.25;4884009;29;20032;-78
2021/03/26 03:56:07;;;;;;;106.30;53.08;;;;;;;5.03;84.94;101336.56;4919435;29;20023;-79
2021/03/26 03:58:48;;;;;;;110.45;53.00;;;;;;;4.94;84.58;101322.31;4918842;29;20032;-79
2021/03/26 04:01:32;;;;;;;111.75;54.35;;;;;;;5.02;84.57;101336.72;4925957;29;20374;-78
2021/03/26 04:04:12;;;;;;;114.25;53.85;;;;;;;4.99;85.52;101335.19;4918591;29;20080;-78
2021/03/26 04:06:50;;;;;;;116.78;55.20;;;;;;;5.01;84.63;101327.88;4903659;29;20107;-78
2021/03/26 04:09:20;;;;;;;115.72;55.85;;;;;;;4.94;85.05;101326.81;4920623;29;20024;-79
2021/03/26 04:12:00;;;;;;;120.78;55.88;;;;;;;4.97;84.77;101330.97;4934527;29;20450;-78
2021/03/26 04:14:46;;;;;;;130.02;56.30;;;;;;;4.92;85.49;101329.63;4921983;29;20035;-78
2021/03/26 04:17:14;;;;;;;;;;;;;;;4.87;85.76;101329.25;4920286;29;20034;-79
2021/03/26 04:19:46;;;;;;;119.15;52.33;;;;;;;4.52;85.76;101267.84;4903082;29;19966;-78
2021/03/26 04:22:17;;;;;;;127.43;54.13;;;;;;;4.90;85.60;101326.28;4913795;29;20047;-78
2021/03/26 04:25:09;;;;;;;125.43;54.60;;;;;;;4.91;85.77;101330.59;4922907;29;20044;-78
2021/03/26 04:27:39;;;;;;;117.88;54.97;;;;;;;4.91;85.21;101333.28;4920637;29;20070;-78
2021/03/26 04:30:13;;;;;;;131.05;54.95;;;;;;;4.91;85.83;101330.59;4919442;29;20035;-78
2021/03/26 04:32:40;;;;;;;126.67;56.07;;;;;;;4.84;85.88;101316.19;4902992;29;20032;-78
2021/03/26 04:35:08;;;;;;;124.90;55.30;;;;;;;4.90;85.73;101328.06;4903101;29;20039;-79
2021/03/26 04:38:10;;;;;;;132.65;56.55;;;;;;;4.84;85.66;101334.03;4930877;29;20454;-78
2021/03/26 04:40:41;;;;;;;125.32;56.33;;;;;;;4.86;86.01;101329.38;4933924;29;20052;-78
2021/03/26 04:43:25;;;;;;;133.90;56.80;;;;;;;4.83;85.51;101321.66;4907294;29;20031;-78
2021/03/26 04:45:56;;;;;;;129.82;55.95;;;;;;;4.89;85.92;101329.06;4904914;29;20107;-78
2021/03/26 04:48:46;;;;;;;141.05;59.13;;;;;;;4.84;86.16;101329.53;4926062;29;20035;-78
2021/03/26 04:51:22;;;;;;;133.20;57.22;;;;;;;4.86;85.60;101319.53;4896951;29;20336;-78
2021/03/26 04:53:59;;;;;;;141.00;61.65;;;;;;;4.81;85.60;101323.66;4902639;29;20028;-78
2021/03/26 04:56:32;;;;;;;146.07;61.72;;;;;;;4.78;86.07;101321.28;4933117;29;20352;-78
2021/03/26 04:58:59;;;;;;;151.35;61.47;;;;;;;4.80;85.68;101319.28;4921605;29;20617;-78
2021/03/26 05:01:27;;;;;;;142.40;61.90;;;;;;;4.81;86.21;101318.34;4918734;29;20032;-78
2021/03/26 05:03:59;;;;;;;146.48;62.42;;;;;;;4.74;86.17;101310.09;4922476;29;20106;-78
2021/03/26 05:06:29;;;;;;;144.57;60.50;;;;;;;4.77;85.89;101314.25;4921355;29;20112;-78
2021/03/26 05:09:01;;;;;;;149.23;64.22;;;;;;;4.81;86.25;101321.81;4922500;29;20051;-78
2021/03/26 05:11:31;;;;;;;146.65;63.63;;;;;;;4.80;86.03;101322.81;4918958;29;20047;-79
2021/03/26 05:14:02;;;;;;;152.52;66.60;;;;;;;4.70;85.88;101304.22;4938761;29;20035;-78
2021/03/26 05:16:43;;;;;;;154.40;66.03;;;;;;;4.79;86.50;101320.28;4921719;29;20454;-78
2021/03/26 05:19:30;;;;;;;143.65;64.10;;;;;;;4.79;85.63;101312.28;4939063;29;20418;-79
2021/03/26 05:22:33;;;;;;;150.73;66.47;;;;;;;4.80;86.53;101314.84;4901781;29;20028;-78
2021/03/26 05:25:21;;;;;;;145.07;64.95;;;;;;;4.80;85.73;101313.97;4919105;29;20493;-79
2021/03/26 05:27:47;;;;;;;147.88;66.30;;;;;;;4.85;85.89;101311.69;4923737;29;20055;-79
2021/03/26 05:30:37;;;;;;;166.85;70.40;;;;;;;4.84;85.74;101313.53;4918840;29;20047;-79
2021/03/26 05:33:07;;;;;;;152.82;68.47;;;;;;;4.91;86.24;101317.28;4915919;29;20097;-78
2021/03/26 05:35:42;;;;;;;158.80;68.00;;;;;;;4.96;86.36;101319.47;4933894;29;20031;-78
2021/03/26 05:38:15;;;;;;;149.25;69.32;;;;;;;4.96;85.62;101319.47;4920931;29;20028;-78
2021/03/26 05:40:46;;;;;;;160.90;68.22;;;;;;;4.97;85.88;101326.53;4917910;29;20438;-78
2021/03/26 05:43:37;;;;;;;157.40;68.47;;;;;;;4.85;85.68;101304.53;4937967;29;20091;-79
2021/03/26 05:46:22;;;;;;;152.02;68.00;;;;;;;4.88;86.29;101309.56;4934657;29;20335;-78
2021/03/26 05:49:07;;;;;;;155.77;70.22;;;;;;;4.92;85.59;101310.13;4918557;29;20023;-79
2021/03/26 05:51:39;;;;;;;156.48;68.13;;;;;;;4.98;86.05;101320.19;4936541;29;20054;-78
2021/03/26 05:54:23;;;;;;;148.63;67.45;;;;;;;5.00;86.26;101317.34;4901807;29;20454;-79
2021/03/26 05:57:20;;;;;;;158.07;68.80;;;;;;;4.93;86.33;101315.31;4901493;29;20046;-77
2021/03/26 06:00:23;;;;;;;159.57;67.60;;;;;;;5.00;86.27;101325.34;4918573;29;20103;-78
2021/03/26 06:03:07;;;;;;;151.82;66.43;;;;;;;5.02;85.66;101321.56;4918464;29;20028;-78
2021/03/26 06:05:49;;;;;;;159.25;68.22;;;;;;;5.04;85.69;101330.25;4917564;29;20354;-78
2021/03/26 06:08:27;;;;;;;159.27;68.95;;;;;;;5.05;86.27;101333.75;4918951;29;20099;-78
2021/03/26 06:10:58;;;;;;;146.15;64.63;;;;;;;5.07;86.30;101335.28;4916563;29;20028;-78
2021/03/26 06:13:36;;;;;;;146.43;65.18;;;;;;;5.07;86.03;101340.63;4918735;29;20028;-78
2021/03/26 06:16:16;;;;;;;140.25;62.75;;;;;;;5.12;85.60;101341.00;4900752;29;20438;-78
2021/03/26 06:19:15;;;;;;;129.13;59.60;;;;;;;5.12;85.76;101335.66;4918509;29;20094;-78
2021/03/26 06:21:52;;;;;;;123.85;58.50;;;;;;;5.16;86.15;101336.19;4917372;29;20024;-78
2021/03/26 06:24:59;;;;;;;121.53;58.05;;;;;;;5.14;85.95;101324.88;4896364;29;20111;-78
2021/03/26 06:27:28;;;;;;;129.23;59.33;;;;;;;5.21;85.64;101335.78;4895517;29;20054;-79
2021/03/26 06:30:18;;;;;;;140.55;61.30;;;;;;;5.24;85.81;101338.13;4914278;29;20020;-78
2021/03/26 06:33:09;;;;;;;129.57;61.40;;;;;;;5.26;85.48;101341.47;4911708;29;20016;-78
2021/03/26 06:35:55;;;;;;;133.40;61.05;;;;;;;5.28;85.39;101337.66;4912175;29;20044;-78
2021/03/26 06:38:23;;;;;;;124.88;60.88;;;;;;;5.30;84.82;101335.69;4909610;29;20040;-78
2021/03/26 06:40:59;;;;;;;127.03;59.67;;;;;;;5.34;85.20;101330.91;4910443;29;20079;-78
2021/03/26 06:43:43;;;;;;;121.32;58.75;;;;;;;5.37;85.44;101333.25;4910577;29;20056;-78
2021/03/26 06:46:20;;;;;;;117.72;58.63;;;;;;;5.37;85.48;101330.59;4912037;29;20354;-78
2021/03/26 06:49:10;;;;;;;121.00;58.17;;;;;;;5.35;85.07;101330.72;4910693;29;20576;-78
2021/03/26 06:52:02;;;;;;;119.15;57.30;;;;;;;5.39;84.84;101340.09;4910507;29;20032;-78
2021/03/26 06:54:59;;;;;;;121.40;59.45;;;;;;;5.40;84.55;101338.31;4910112;29;20067;-78
2021/03/26 06:57:44;;;;;;;122.70;58.80;;;;;;;5.45;84.77;101338.66;4911327;29;20032;-78
2021/03/26 07:00:36;;;;;;;119.68;60.78;;;;;;;5.37;84.79;101327.94;4908946;29;20063;-78
2021/03/26 07:03:39;;;;;;;122.47;60.60;;;;;;;5.50;84.87;101340.91;4918778;29;20035;-78
2021/03/26 07:06:17;;;;;;;129.43;60.03;;;;;;;5.53;84.76;101322.75;4899655;29;20024;-79
2021/03/26 07:09:01;;;;;;;122.22;58.13;;;;;;;5.48;84.17;101309.00;4912084;29;20032;-78
2021/03/26 07:11:45;;;;;;;118.35;58.55;;;;;;;5.58;84.11;101315.09;4911329;29;20099;-78
2021/03/26 07:14:44;;;;;;;111.90;56.80;;;;;;;5.68;84.67;101319.50;4913352;29;20040;-78
2021/03/26 07:17:22;;;;;;;123.47;57.97;;;;;;;5.53;84.68;101298.72;4898311;29;20030;-78
2021/03/26 07:20:10;;;;;;;109.57;55.63;;;;;;;5.69;84.48;101326.53;4910317;29;20032;-79
2021/03/26 07:23:16;;;;;;;113.28;55.95;;;;;;;5.73;84.01;101338.56;4889925;29;20466;-78
2021/03/26 07:26:03;;;;;;;117.78;56.05;;;;;;;5.78;83.91;101330.94;4918667;29;20035;-78
2021/03/26 07:28:32;;;;;;;112.35;56.33;;;;;;;5.88;84.20;101337.03;4908238;29;20028;-78
2021/03/26 07:31:18;;;;;;;117.32;58.97;;;;;;;5.92;84.30;101334.88;4912964;29;20079;-78
2021/03/26 07:33:51;;;;;;;114.45;57.22;;;;;;;5.98;84.04;101329.78;4910022;29;20091;-78
2021/03/26 07:36:39;;;;;;;107.20;56.45;;;;;;;6.02;83.94;101327.63;4896320;29;20028;-78
2021/03/26 07:39:26;;;;;;;108.65;55.65;;;;;;;5.99;83.68;101312.75;4917675;29;20024;-78
2021/03/26 07:41:54;;;;;;;107.15;54.63;;;;;;;6.14;83.27;101326.41;4899212;29;20055;-78
2021/03/26 07:44:44;;;;;;;107.40;54.00;;;;;;;6.23;83.43;101324.63;4917975;29;20472;-78
2021/03/26 07:47:31;;;;;;;110.30;54.22;;;;;;;6.29;83.03;101316.81;4921459;29;20059;-78
2021/03/26 07:50:30;;;;;;;99.72;53.65;;;;;;;6.34;82.54;101317.16;4915242;29;20054;-78
2021/03/26 07:53:07;;;;;;;93.43;50.53;;;;;;;6.51;82.11;101334.13;4917102;29;20352;-78
2021/03/26 07:55:53;;;;;;;99.47;51.85;;;;;;;6.67;82.24;101341.38;4889784;29;20024;-78
2021/03/26 07:58:36;;;;;;;94.65;52.45;;;;;;;6.80;81.97;101332.91;4919735;29;20036;-78
2021/03/26 08:01:23;;;;;;;94.43;53.22;;;;;;;6.91;81.63;101335.28;4918614;29;20020;-78
2021/03/26 08:03:58;;;;;;;89.57;51.38;;;;;;;6.92;81.12;101336.97;4903361;29;20131;-78
2021/03/26 08:06:29;;;;;;;93.03;51.58;;;;;;;7.01;81.14;101341.34;4923148;29;20023;-80
2021/03/26 08:09:31;;;;;;;88.82;49.33;;;;;;;6.99;80.93;101339.84;4907860;29;20032;-78
2021/03/26 08:12:04;;;;;;;96.63;52.03;;;;;;;6.91;80.39;101332.59;4921421;29;20395;-78
2021/03/26 08:14:30;;;;;;;100.38;52.70;;;;;;;6.99;80.54;101339.84;4922258;29;20124;-78
2021/03/26 08:17:19;;;;;;;96.72;53.28;;;;;;;6.97;80.33;101348.00;4899543;29;20448;-78
2021/03/26 08:19:59;;;;;;;94.20;51.78;;;;;;;6.98;80.43;101340.81;4898181;29;20442;-78
2021/03/26 08:22:48;;;;;;;96.85;53.75;;;;;;;6.92;80.59;101336.97;4897830;29;20166;-78
2021/03/26 08:25:37;;;;;;;102.68;52.80;;;;;;;6.83;80.67;101335.25;4895877;29;20039;-79
2021/03/26 08:28:33;;;;;;;96.05;51.90;;;;;;;6.58;80.85;101334.31;4912183;29;20376;-78
2021/03/26 08:31:20;;;;;;;108.85;56.75;;;;;;;6.62;80.82;101343.69;4914700;29;20035;-78
2021/03/26 08:34:07;;;;;;;99.88;54.00;;;;;;;6.59;80.66;101358.22;4938169;29;20044;-78
2021/03/26 08:36:55;;;;;;;100.60;51.38;;;;;;;6.44;80.66;101351.78;4934298;29;20024;-79
2021/03/26 08:39:33;;;;;;;90.38;46.08;;;;;;;6.25;80.89;101347.50;4900052;29;20036;-78
2021/03/26 08:42:10;;;;;;;102.57;51.28;;;;;;;6.07;81.10;101352.06;4901043;29;20064;-78
2021/03/26 08:44:37;;;;;;;111.68;49.65;;;;;;;5.98;81.36;101356.50;4908061;29;20111;-78
2021/03/26 08:47:09;;;;;;;113.65;51.88;;;;;;;5.86;81.36;101337.19;4900993;29;20028;-78
2021/03/26 08:49:44;;;;;;;124.50;53.13;;;;;;;5.83;81.45;101360.72;4917849;29;20024;-78
2021/03/26 08:52:38;;;;;;;106.75;51.92;;;;;;;5.77;81.68;101347.97;4917966;29;20031;-78
2021/03/26 08:55:41;;;;;;;108.05;51.28;;;;;;;5.78;81.94;101357.66;4916140;29;20024;-78
2021/03/26 08:58:18;;;;;;;109.13;49.67;;;;;;;5.77;82.53;101359.47;4916016;29;20348;-78
2021/03/26 09:00:47;;;;;;;117.18;52.80;;;;;;;5.73;83.02;101349.25;4904622;29;20024;-78
2021/03/26 09:03:21;;;;;;;125.03;57.28;;;;;;;5.71;82.55;101356.59;4915428;29;20523;-78
2021/03/26 09:05:54;;;;;;;131.07;56.05;;;;;;;5.49;83.08;101329.34;4919699;29;20553;-78
2021/03/26 09:08:38;;;;;;;137.65;61.42;;;;;;;5.69;83.53;101358.56;4917732;29;20024;-78
2021/03/26 09:11:44;;;;;;;140.30;61.63;;;;;;;5.71;83.02;101356.59;4900842;29;20038;-78
2021/03/26 09:14:22;;;;;;;133.35;60.78;;;;;;;5.68;83.46;101363.06;4898421;29;20040;-78
2021/03/26 09:16:56;;;;;;;142.60;61.00;;;;;;;5.64;83.73;101354.53;4915360;29;20119;-78
2021/03/26 09:19:33;;;;;;;137.60;60.92;;;;;;;5.68;83.53;101348.88;4921325;29;20119;-78
2021/03/26 09:22:32;;;;;;;141.35;60.65;;;;;;;5.64;84.16;101351.03;4898704;29;20028;-78
2021/03/26 09:25:01;;;;;;;128.93;57.85;;;;;;;5.69;84.14;101348.72;4915400;29;20032;-78
2021/03/26 09:27:48;;;;;;;136.00;60.45;;;;;;;5.70;84.55;101358.44;4912120;29;20116;-78
2021/03/26 09:30:47;;;;;;;121.20;58.00;;;;;;;5.71;83.58;101353.91;4894232;29;20036;-78
2021/03/26 09:33:17;;;;;;;120.30;56.28;;;;;;;5.72;84.69;101336.91;4865292;29;20044;-79
2021/03/26 09:36:17;;;;;;;107.47;53.03;;;;;;;5.80;83.81;101340.47;4910651;29;20110;-78
2021/03/26 09:38:49;;;;;;;114.10;53.70;;;;;;;5.71;84.17;101305.84;4924594;29;20047;-79
2021/03/26 09:41:44;;;;;;;99.18;50.17;;;;;;;5.99;83.48;101336.78;4919615;29;20072;-78
2021/03/26 09:44:56;;;;;;;95.07;48.83;;;;;;;6.17;83.47;101351.97;4882951;29;20032;-78
2021/03/26 09:47:31;;;;;;;87.55;46.10;;;;;;;6.35;83.25;101336.69;4916213;29;20457;-78
2021/03/26 09:50:06;;;;;;;91.10;46.53;;;;;;;6.48;82.81;101333.59;4896908;29;20400;-78
2021/03/26 09:52:37;;;;;;;87.88;45.22;;;;;;;6.57;83.10;101346.84;4916437;29;20046;-78
2021/03/26 09:55:10;;;;;;;86.07;45.33;;;;;;;6.70;82.41;101338.38;4899495;29;20036;-78
2021/03/26 09:57:51;;;;;;;80.88;44.05;;;;;;;6.88;82.16;101348.97;4911754;29;20080;-78
2021/03/26 10:00:23;;;;;;;80.30;40.03;;;;;;;7.04;81.45;101343.69;4913166;29;20017;-78
2021/03/26 10:03:12;;;;;;;69.75;39.00;;;;;;;7.05;81.45;101340.03;4915404;29;20036;-78
2021/03/26 10:06:00;;;;;;;65.13;38.05;;;;;;;7.12;81.31;101342.88;4913471;29;20036;-78
2021/03/26 10:08:49;;;;;;;66.32;36.28;;;;;;;7.17;80.44;101337.03;4911534;29;20437;-78
2021/03/26 10:11:40;;;;;;;64.53;37.08;;;;;;;7.02;80.46;101323.47;4915608;29;20027;-78
2021/03/26 10:14:11;;;;;;;67.50;35.17;;;;;;;7.08;80.06;101320.09;4912910;29;20064;-78
2021/03/26 10:16:56;;;;;;;58.58;33.88;;;;;;;6.97;79.43;101320.44;4912918;29;20028;-78
2021/03/26 10:19:32;;;;;;;59.30;34.10;;;;;;;7.11;79.51;101340.34;4895530;29;20023;-78
2021/03/26 10:22:51;;;;;;;60.40;33.63;;;;;;;7.12;79.26;101334.00;4903806;29;20024;-78
2021/03/26 10:25:30;;;;;;;60.85;34.53;;;;;;;7.03;78.82;101301.03;4842508;29;20093;-78
2021/03/26 10:28:15;;;;;;;57.00;32.97;;;;;;;7.25;79.07;101334.34;4912056;29;20051;-79
2021/03/26 10:30:44;;;;;;;59.03;33.88;;;;;;;7.37;78.27;101330.38;4900225;29;20423;-79
2021/03/26 10:33:13;;;;;;;58.47;33.22;;;;;;;7.42;78.30;101330.72;4917393;29;20032;-79
2021/03/26 10:35:49;;;;;;;58.03;32.42;;;;;;;7.26;77.93;101298.59;4901691;29;20044;-79
2021/03/26 10:38:28;;;;;;;56.88;33.58;;;;;;;7.28;78.14;101320.66;4925088;29;20070;-79
2021/03/26 10:41:07;;;;;;;54.08;33.83;;;;;;;7.28;77.56;101326.00;4920200;29;20126;-78
2021/03/26 10:43:49;;;;;;;58.97;33.55;;;;;;;7.00;78.12;101307.56;4900068;29;20483;-80
2021/03/26 10:46:22;;;;;;;62.97;35.45;;;;;;;7.05;77.88;101320.44;4900107;29;20119;-80
2021/03/26 10:48:59;;;;;;;60.90;35.00;;;;;;;7.02;78.46;101326.13;4923795;29;20032;-80
2021/03/26 10:51:41;;;;;;;58.22;34.97;;;;;;;6.86;78.27;101308.19;4919689;29;20028;-80
2021/03/26 10:54:15;;;;;;;63.35;36.33;;;;;;;6.90;78.52;101325.59;4918964;29;20055;-79
2021/03/26 10:57:02;;;;;;;61.58;35.03;;;;;;;6.74;78.75;101314.84;4923260;29;20407;-80
2021/03/26 10:59:52;;;;;;;67.72;38.47;;;;;;;6.59;79.73;101312.78;4916530;29;20033;-80
2021/03/26 11:02:33;;;;;;;77.75;40.88;;;;;;;6.51;80.37;101314.56;4893155;29;20025;-79
2021/03/26 11:05:07;;;;;;;80.88;41.83;;;;;;;6.35;81.05;101307.28;4910215;29;20030;-80
2021/03/26 11:07:40;;;;;;;79.18;41.10;;;;;;;6.27;81.55;101315.28;4892411;29;20048;-80
2021/03/26 11:10:11;;;;;;;88.70;43.47;;;;;;;6.16;81.58;101304.84;4893967;29;20468;-81
2021/03/26 11:12:48;;;;;;;81.00;43.60;;;;;;;6.33;81.72;101310.16;4897594;29;20024;-82
2021/03/26 11:15:19;;;;;;;84.68;42.90;;;;;;;6.30;82.04;101312.28;4905535;29;20107;-81
2021/03/26 11:17:53;;;;;;;94.40;44.35;;;;;;;6.26;82.21;101314.44;4923167;29;20051;-82
2021/03/26 11:20:34;;;;;;;88.15;44.92;;;;;;;6.25;82.03;101314.59;4916442;29;20261;-80
2021/03/26 11:23:26;;;;;;;88.57;43.85;;;;;;;6.20;82.42;101301.72;4913769;29;20080;-80
2021/03/26 11:26:24;;;;;;;84.75;43.55;;;;;;;6.21;82.44;101306.06;4911709;29;20363;-80
2021/03/26 11:28:52;;;;;;;87.28;43.38;;;;;;;6.39;82.30;101311.34;4903127;29;20064;-79
2021/03/26 11:31:29;;;;;;;88.75;43.22;;;;;;;6.52;82.15;101301.06;4909293;29;20027;-79
2021/03/26 11:34:16;;;;;;;86.63;42.65;;;;;;;6.64;82.14;101298.09;4914231;29;20094;-80
2021/03/26 11:36:48;;;;;;;81.47;41.30;;;;;;;6.66;81.91;101294.25;4911061;29;20035;-79
2021/03/26 11:39:32;;;;;;;85.53;42.90;;;;;;;6.62;82.02;101295.56;4903463;29;20414;-79
2021/03/26 11:42:05;;;;;;;86.93;41.95;;;;;;;6.50;82.53;101289.66;4892115;29;20490;-79
2021/03/26 11:44:36;;;;;;;89.30;42.45;;;;;;;6.51;82.17;101294.00;4897218;29;20031;-78
2021/03/26 11:47:13;;;;;;;86.78;41.50;;;;;;;6.44;82.71;101298.31;4911761;29;20034;-78
2021/03/26 11:49:42;;;;;;;74.72;39.17;;;;;;;6.42;82.51;101292.28;4885464;29;20095;-81
2021/03/26 11:52:12;;;;;;;77.25;39.40;;;;;;;6.44;82.07;101287.63;4900049;29;20446;-79
2021/03/26 11:54:37;;;;;;;72.95;37.10;;;;;;;6.50;82.22;101283.50;4896969;29;20043;-79
2021/03/26 11:57:18;;;;;;;80.03;38.35;;;;;;;6.40;81.89;101288.13;4913280;29;20036;-78
2021/03/26 11:59:50;;;;;;;69.63;38.58;;;;;;;6.41;82.19;101279.09;4912475;29;20042;-80
2021/03/26 12:02:29;;;;;;;72.78;38.60;;;;;;;6.54;81.84;101279.50;4896972;29;20045;-79
2021/03/26 12:05:06;;;;;;;74.80;36.47;;;;;;;6.51;81.86;101280.66;4911728;29;20028;-79